createdAt,value
2023-05-24T00:00:01.934Z,16.02
2023-05-24T00:01:01.627Z,16.02
2023-05-24T00:02:01.628Z,15.96
2023-05-24T00:03:01.698Z,15.96
2023-05-24T00:04:02.049Z,15.94
2023-05-24T00:05:01.770Z,15.94
2023-05-24T00:06:01.735Z,15.90
2023-05-24T00:07:01.561Z,15.90
2023-05-24T00:08:01.730Z,15.87
2023-05-24T00:09:01.570Z,15.83
2023-05-24T00:10:01.636Z,15.83
2023-05-24T00:11:01.885Z,15.81
2023-05-24T00:12:01.642Z,15.80
2023-05-24T00:13:01.567Z,15.80
2023-05-24T00:14:01.633Z,15.80
2023-05-24T00:15:01.726Z,15.75
2023-05-24T00:16:01.494Z,15.75
2023-05-24T00:17:01.623Z,15.73
2023-05-24T00:18:01.551Z,15.70
2023-05-24T00:19:01.490Z,15.72
2023-05-24T00:20:01.499Z,15.67
2023-05-24T00:21:01.564Z,15.66
2023-05-24T00:22:01.320Z,15.65
2023-05-24T00:23:01.485Z,15.62
2023-05-24T00:24:01.312Z,15.60
2023-05-24T00:25:01.388Z,15.60
2023-05-24T00:26:01.309Z,15.60
2023-05-24T00:27:01.448Z,15.59
2023-05-24T00:28:01.338Z,15.55
2023-05-24T00:29:01.280Z,15.55
2023-05-24T00:30:01.363Z,15.57
2023-05-24T00:31:01.218Z,15.59
2023-05-24T00:32:01.245Z,15.57
2023-05-24T00:33:01.313Z,15.57
2023-05-24T00:34:01.178Z,15.62
2023-05-24T00:35:01.253Z,15.62
2023-05-24T00:36:01.224Z,15.60
2023-05-24T00:37:01.148Z,15.62
2023-05-24T00:38:01.174Z,15.60
2023-05-24T00:39:01.122Z,15.60
2023-05-24T00:40:01.294Z,15.59
2023-05-24T00:41:01.253Z,15.62
2023-05-24T00:42:01.305Z,15.62
2023-05-24T00:43:01.117Z,15.60
2023-05-24T00:44:01.305Z,15.62
2023-05-24T00:45:01.201Z,15.62
2023-05-24T00:46:01.156Z,15.62
2023-05-24T00:47:01.150Z,15.63
2023-05-24T00:48:01.067Z,15.66
2023-05-24T00:49:00.984Z,15.69
2023-05-24T00:50:00.981Z,15.69
2023-05-24T00:51:01.249Z,15.72
2023-05-24T00:52:01.064Z,15.70
2023-05-24T00:53:00.992Z,15.70
2023-05-24T00:54:01.040Z,15.69
2023-05-24T00:55:00.910Z,15.66
2023-05-24T00:56:01.109Z,15.66
2023-05-24T00:57:00.955Z,15.66
2023-05-24T00:58:00.981Z,15.63
2023-05-24T00:59:00.831Z,15.62
2023-05-24T01:00:00.999Z,15.59
2023-05-24T01:01:00.834Z,15.55
2023-05-24T01:02:01.022Z,15.51
2023-05-24T01:03:00.974Z,15.48
2023-05-24T01:04:01.037Z,15.47
2023-05-24T01:05:00.854Z,15.45
2023-05-24T01:06:00.956Z,15.43
2023-05-24T01:07:00.859Z,15.39
2023-05-24T01:08:01.116Z,15.37
2023-05-24T01:09:00.948Z,15.35
2023-05-24T01:10:00.704Z,15.32
2023-05-24T01:11:00.830Z,15.32
2023-05-24T01:12:00.712Z,15.30
2023-05-24T01:13:00.938Z,15.27
2023-05-24T01:14:00.670Z,15.26
2023-05-24T01:15:00.809Z,15.23
2023-05-24T01:16:00.635Z,15.23
2023-05-24T01:17:00.608Z,15.18
2023-05-24T01:18:00.803Z,15.15
2023-05-24T01:19:01.046Z,15.14
2023-05-24T01:20:00.838Z,15.10
2023-05-24T01:21:00.828Z,15.10
2023-05-24T01:22:00.775Z,15.08
2023-05-24T01:23:00.562Z,15.07
2023-05-24T01:24:00.828Z,15.04
2023-05-24T01:25:00.536Z,15.00
2023-05-24T01:26:00.709Z,14.97
2023-05-24T01:27:00.523Z,14.96
2023-05-24T01:28:00.674Z,14.93
2023-05-24T01:29:00.585Z,14.90
2023-05-24T01:30:00.514Z,14.86
2023-05-24T01:31:00.542Z,14.89
2023-05-24T01:32:00.410Z,14.87
2023-05-24T01:33:00.480Z,14.87
2023-05-24T01:34:00.543Z,14.87
2023-05-24T01:35:00.614Z,14.86
2023-05-24T01:36:00.384Z,14.87
2023-05-24T01:37:00.335Z,14.86
2023-05-24T01:38:00.349Z,14.86
2023-05-24T01:39:00.619Z,14.85
2023-05-24T01:40:00.334Z,14.82
2023-05-24T01:41:00.612Z,14.82
2023-05-24T01:42:00.329Z,14.85
2023-05-24T01:43:00.492Z,14.86
2023-05-24T01:44:00.346Z,14.86
2023-05-24T01:45:00.253Z,14.86
2023-05-24T01:46:00.447Z,14.85
2023-05-24T01:47:00.543Z,14.87
2023-05-24T01:48:00.404Z,14.86
2023-05-24T01:49:00.198Z,14.86
2023-05-24T01:50:00.273Z,14.89
2023-05-24T01:51:00.230Z,14.89
2023-05-24T01:52:00.330Z,14.90
2023-05-24T01:53:00.286Z,14.92
2023-05-24T01:54:00.102Z,14.90
2023-05-24T01:55:00.266Z,14.93
2023-05-24T01:56:00.113Z,14.94
2023-05-24T01:57:00.293Z,14.94
2023-05-24T01:58:00.144Z,14.93
2023-05-24T01:59:00.213Z,14.96
2023-05-24T02:00:00.168Z,14.97
2023-05-24T02:01:00.058Z,14.96
2023-05-24T02:02:00.120Z,14.96
2023-05-24T02:03:00.357Z,14.97
2023-05-24T02:04:00.053Z,14.97
2023-05-24T02:05:00.078Z,14.97
2023-05-24T02:06:00.137Z,14.97
2023-05-24T02:06:59.962Z,14.99
2023-05-24T02:08:00.129Z,14.96
2023-05-24T02:09:00.190Z,14.97
2023-05-24T02:10:00.038Z,14.97
2023-05-24T02:10:59.920Z,14.97
2023-05-24T02:11:59.999Z,14.99
2023-05-24T02:12:59.953Z,14.97
2023-05-24T02:13:59.840Z,14.99
2023-05-24T02:14:59.850Z,14.99
2023-05-24T02:15:59.837Z,15.02
2023-05-24T02:16:59.919Z,15.04
2023-05-24T02:17:59.935Z,15.04
2023-05-24T02:18:59.869Z,15.07
2023-05-24T02:19:59.852Z,15.08
2023-05-24T02:20:59.846Z,15.08
2023-05-24T02:21:59.832Z,15.07
2023-05-24T02:23:00.230Z,15.08
2023-05-24T02:23:59.712Z,15.10
2023-05-24T02:24:59.878Z,15.08
2023-05-24T02:25:59.709Z,15.07
2023-05-24T02:26:59.899Z,15.04
2023-05-24T02:27:59.867Z,15.04
2023-05-24T02:28:59.678Z,15.02
2023-05-24T02:29:59.665Z,15.00
2023-05-24T02:30:59.739Z,15.00
2023-05-24T02:31:59.709Z,14.96
2023-05-24T02:32:59.741Z,14.94
2023-05-24T02:33:59.611Z,14.94
2023-05-24T02:34:59.856Z,14.93
2023-05-24T02:35:59.611Z,14.93
2023-05-24T02:36:59.532Z,14.94
2023-05-24T02:37:59.593Z,14.92
2023-05-24T02:38:59.544Z,14.92
2023-05-24T02:39:59.543Z,14.93
2023-05-24T02:40:59.581Z,14.92
2023-05-24T02:41:59.525Z,14.89
2023-05-24T02:42:59.557Z,14.87
2023-05-24T02:43:59.825Z,14.82
2023-05-24T02:44:59.654Z,14.81
2023-05-24T02:45:59.456Z,14.79
2023-05-24T02:46:59.526Z,14.78
2023-05-24T02:47:59.660Z,14.78
2023-05-24T02:48:59.393Z,14.73
2023-05-24T02:49:59.515Z,14.70
2023-05-24T02:50:59.522Z,14.71
2023-05-24T02:51:59.507Z,14.70
2023-05-24T02:52:59.407Z,14.68
2023-05-24T02:53:59.385Z,14.67
2023-05-24T02:54:59.652Z,14.67
2023-05-24T02:55:59.505Z,14.67
2023-05-24T02:56:59.258Z,14.67
2023-05-24T02:57:59.263Z,14.67
2023-05-24T02:58:59.261Z,14.63
2023-05-24T02:59:59.305Z,14.67
2023-05-24T03:00:59.223Z,14.70
2023-05-24T03:01:59.475Z,14.71
2023-05-24T03:02:59.283Z,14.71
2023-05-24T03:03:59.209Z,14.73
2023-05-24T03:04:59.312Z,14.73
2023-05-24T03:05:59.146Z,14.73
2023-05-24T03:06:59.231Z,14.74
2023-05-24T03:07:59.118Z,14.77
2023-05-24T03:08:59.360Z,14.79
2023-05-24T03:09:59.091Z,14.79
2023-05-24T03:10:59.343Z,14.77
2023-05-24T03:11:59.048Z,14.78
2023-05-24T03:12:59.041Z,14.78
2023-05-24T03:13:59.087Z,14.79
2023-05-24T03:14:59.059Z,14.81
2023-05-24T03:15:59.201Z,14.85
2023-05-24T03:16:59.301Z,14.86
2023-05-24T03:17:59.118Z,14.89
2023-05-24T03:18:59.214Z,14.89
2023-05-24T03:19:59.202Z,14.89
2023-05-24T03:20:58.943Z,14.87
2023-05-24T03:21:59.154Z,14.89
2023-05-24T03:22:58.994Z,14.87
2023-05-24T03:23:58.996Z,14.86
2023-05-24T03:24:58.910Z,14.86
2023-05-24T03:25:59.062Z,14.85
2023-05-24T03:26:59.037Z,14.82
2023-05-24T03:27:59.081Z,14.82
2023-05-24T03:28:59.000Z,14.85
2023-05-24T03:29:58.831Z,14.86
2023-05-24T03:30:58.912Z,14.86
2023-05-24T03:31:58.964Z,14.86
2023-05-24T03:32:58.960Z,14.86
2023-05-24T03:33:58.884Z,14.87
2023-05-24T03:34:58.767Z,14.87
2023-05-24T03:35:58.787Z,14.87
2023-05-24T03:36:58.724Z,14.89
2023-05-24T03:37:58.863Z,14.89
2023-05-24T03:38:58.779Z,14.92
2023-05-24T03:39:58.733Z,14.90
2023-05-24T03:40:58.922Z,14.92
2023-05-24T03:41:58.771Z,14.93
2023-05-24T03:42:58.906Z,14.96
2023-05-24T03:43:58.848Z,14.97
2023-05-24T03:44:58.613Z,14.97
2023-05-24T03:45:58.900Z,14.97
2023-05-24T03:46:58.611Z,14.97
2023-05-24T03:47:58.618Z,14.97
2023-05-24T03:48:58.740Z,14.97
2023-05-24T03:49:58.734Z,14.99
2023-05-24T03:50:58.562Z,14.96
2023-05-24T03:51:58.532Z,14.96
2023-05-24T03:52:58.579Z,14.94
2023-05-24T03:53:58.588Z,14.94
2023-05-24T03:54:58.696Z,14.99
2023-05-24T03:55:58.504Z,14.97
2023-05-24T03:56:58.566Z,14.97
2023-05-24T03:57:58.464Z,14.99
2023-05-24T03:58:58.522Z,14.99
2023-05-24T03:59:58.420Z,15.02
2023-05-24T04:00:58.405Z,15.02
2023-05-24T04:01:58.572Z,15.04
2023-05-24T04:02:58.677Z,15.04
2023-05-24T04:03:58.511Z,15.02
2023-05-24T04:04:58.580Z,15.02
2023-05-24T04:05:58.421Z,15.02
2023-05-24T04:06:58.311Z,15.04
2023-05-24T04:07:58.444Z,15.02
2023-05-24T04:08:58.374Z,15.04
2023-05-24T04:09:58.283Z,15.04
2023-05-24T04:10:58.271Z,15.04
2023-05-24T04:11:58.535Z,15.05
2023-05-24T04:12:58.290Z,15.05
2023-05-24T04:13:58.527Z,15.07
2023-05-24T04:14:58.252Z,15.05
2023-05-24T04:15:58.180Z,15.07
2023-05-24T04:16:58.366Z,15.07
2023-05-24T04:17:58.243Z,15.08
2023-05-24T04:18:58.273Z,15.08
2023-05-24T04:19:58.258Z,15.10
2023-05-24T04:20:58.155Z,15.10
2023-05-24T04:21:58.105Z,15.10
2023-05-24T04:22:58.267Z,15.10
2023-05-24T04:23:58.226Z,15.08
2023-05-24T04:24:59.749Z,15.10
2023-05-24T04:25:58.124Z,15.08
2023-05-24T04:26:58.284Z,15.10
2023-05-24T04:27:58.134Z,15.10
2023-05-24T04:28:58.095Z,15.11
2023-05-24T04:29:58.206Z,15.11
2023-05-24T04:30:58.064Z,15.10
2023-05-24T04:31:58.177Z,15.12
2023-05-24T04:32:58.278Z,15.08
2023-05-24T04:33:58.117Z,15.08
2023-05-24T04:34:58.084Z,15.11
2023-05-24T04:35:58.089Z,15.10
2023-05-24T04:36:58.057Z,15.10
2023-05-24T04:37:57.903Z,15.12
2023-05-24T04:38:57.949Z,15.11
2023-05-24T04:39:57.941Z,15.10
2023-05-24T04:40:58.717Z,15.12
2023-05-24T04:41:57.822Z,15.12
2023-05-24T04:42:57.942Z,15.11
2023-05-24T04:43:58.127Z,15.14
2023-05-24T04:44:57.956Z,15.14
2023-05-24T04:45:57.893Z,15.12
2023-05-24T04:46:57.918Z,15.17
2023-05-24T04:47:57.938Z,15.18
2023-05-24T04:48:57.955Z,15.19
2023-05-24T04:49:57.794Z,15.19
2023-05-24T04:50:57.797Z,15.22
2023-05-24T04:51:57.811Z,15.23
2023-05-24T04:52:57.740Z,15.25
2023-05-24T04:53:57.791Z,15.23
2023-05-24T04:54:57.969Z,15.26
2023-05-24T04:55:57.675Z,15.29
2023-05-24T04:56:57.720Z,15.29
2023-05-24T04:57:57.781Z,15.32
2023-05-24T04:58:57.622Z,15.32
2023-05-24T04:59:57.615Z,15.35
2023-05-24T05:00:57.637Z,15.35
2023-05-24T05:01:57.758Z,15.35
2023-05-24T05:02:57.833Z,15.35
2023-05-24T05:03:57.580Z,15.37
2023-05-24T05:04:57.575Z,15.37
2023-05-24T05:05:57.795Z,15.39
2023-05-24T05:06:57.714Z,15.43
2023-05-24T05:07:57.496Z,15.44
2023-05-24T05:08:57.463Z,15.41
2023-05-24T05:09:57.453Z,15.41
2023-05-24T05:10:57.629Z,15.39
2023-05-24T05:11:57.468Z,15.39
2023-05-24T05:12:57.547Z,15.37
2023-05-24T05:13:57.498Z,15.37
2023-05-24T05:14:57.432Z,15.36
2023-05-24T05:15:57.405Z,15.35
2023-05-24T05:16:57.427Z,15.35
2023-05-24T05:17:57.513Z,15.36
2023-05-24T05:18:57.399Z,15.36
2023-05-24T05:19:57.413Z,15.36
2023-05-24T05:20:57.327Z,15.36
2023-05-24T05:21:57.278Z,15.36
2023-05-24T05:22:57.308Z,15.33
2023-05-24T05:23:57.575Z,15.35
2023-05-24T05:24:57.281Z,15.35
2023-05-24T05:25:57.472Z,15.37
2023-05-24T05:26:57.305Z,15.39
2023-05-24T05:27:57.257Z,15.43
2023-05-24T05:28:57.329Z,15.44
2023-05-24T05:29:57.196Z,15.48
2023-05-24T05:30:57.279Z,15.47
2023-05-24T05:31:57.501Z,15.48
2023-05-24T05:32:57.562Z,15.48
2023-05-24T05:33:57.194Z,15.51
2023-05-24T05:34:57.400Z,15.48
2023-05-24T05:35:57.128Z,15.48
2023-05-24T05:36:57.126Z,15.47
2023-05-24T05:37:57.155Z,15.41
2023-05-24T05:38:57.348Z,15.35
2023-05-24T05:39:57.091Z,15.30
2023-05-24T05:40:57.405Z,15.27
2023-05-24T05:41:57.169Z,15.26
2023-05-24T05:42:57.038Z,15.18
2023-05-24T05:43:57.229Z,15.18
2023-05-24T05:44:57.035Z,15.18
2023-05-24T05:45:57.319Z,15.08
2023-05-24T05:46:56.990Z,15.08
2023-05-24T05:47:57.004Z,15.11
2023-05-24T05:48:56.997Z,15.10
2023-05-24T05:49:57.168Z,15.08
2023-05-24T05:50:57.129Z,15.07
2023-05-24T05:51:56.899Z,15.05
2023-05-24T05:52:57.013Z,15.04
2023-05-24T05:53:56.871Z,15.00
2023-05-24T05:54:56.919Z,14.99
2023-05-24T05:55:57.015Z,15.00
2023-05-24T05:56:57.441Z,15.02
2023-05-24T05:57:56.887Z,15.04
2023-05-24T05:58:57.005Z,15.04
2023-05-24T05:59:56.871Z,15.02
2023-05-24T06:00:56.947Z,15.07
2023-05-24T06:01:56.985Z,15.12
2023-05-24T06:02:56.874Z,15.25
2023-05-24T06:03:56.901Z,15.27
2023-05-24T06:04:56.766Z,15.37
2023-05-24T06:05:56.921Z,15.26
2023-05-24T06:06:56.732Z,15.30
2023-05-24T06:07:56.933Z,15.39
2023-05-24T06:08:56.747Z,15.36
2023-05-24T06:09:56.700Z,15.41
2023-05-24T06:10:56.669Z,15.43
2023-05-24T06:11:56.788Z,15.52
2023-05-24T06:12:56.638Z,15.54
2023-05-24T06:13:56.841Z,15.55
2023-05-24T06:14:56.659Z,15.57
2023-05-24T06:15:56.672Z,15.55
2023-05-24T06:16:58.017Z,15.57
2023-05-24T06:17:57.052Z,15.52
2023-05-24T06:19:05.450Z,15.54
2023-05-24T06:19:56.628Z,15.51
2023-05-24T06:20:56.639Z,15.47
2023-05-24T06:21:56.551Z,15.45
2023-05-24T06:22:56.783Z,15.41
2023-05-24T06:23:56.486Z,15.36
2023-05-24T06:24:56.776Z,15.32
2023-05-24T06:25:56.542Z,15.29
2023-05-24T06:26:56.473Z,15.23
2023-05-24T06:27:56.617Z,15.15
2023-05-24T06:28:56.440Z,15.11
2023-05-24T06:29:56.609Z,15.05
2023-05-24T06:30:56.436Z,15.02
2023-05-24T06:31:56.455Z,15.00
2023-05-24T06:32:56.492Z,15.07
2023-05-24T06:34:56.357Z,15.10
2023-05-24T06:35:56.345Z,15.10
2023-05-24T06:36:56.350Z,15.14
2023-05-24T06:37:56.484Z,15.10
2023-05-24T06:38:56.604Z,15.08
2023-05-24T06:39:56.347Z,15.12
2023-05-24T06:40:56.321Z,15.12
2023-05-24T06:41:56.264Z,15.12
2023-05-24T06:42:56.280Z,15.15
2023-05-24T06:43:56.245Z,15.15
2023-05-24T06:44:56.331Z,15.22
2023-05-24T06:45:56.519Z,15.19
2023-05-24T06:46:56.436Z,15.18
2023-05-24T06:47:56.242Z,15.14
2023-05-24T06:48:56.229Z,15.14
2023-05-24T06:49:56.185Z,15.19
2023-05-24T06:50:56.485Z,15.22
2023-05-24T06:51:56.192Z,15.19
2023-05-24T06:52:56.192Z,15.14
2023-05-24T06:53:56.073Z,15.08
2023-05-24T06:54:56.092Z,15.04
2023-05-24T06:55:57.613Z,15.07
2023-05-24T06:56:56.386Z,15.08
2023-05-24T06:57:56.180Z,15.10
2023-05-24T06:58:56.031Z,15.08
2023-05-24T06:59:56.378Z,15.07
2023-05-24T07:00:56.166Z,15.08
2023-05-24T07:01:56.287Z,15.10
2023-05-24T07:02:56.093Z,15.11
2023-05-24T07:03:55.956Z,15.11
2023-05-24T07:04:56.174Z,15.11
2023-05-24T07:05:55.997Z,15.11
2023-05-24T07:06:56.143Z,15.08
2023-05-24T07:07:56.175Z,15.04
2023-05-24T07:08:56.085Z,15.02
2023-05-24T07:09:55.896Z,15.04
2023-05-24T07:10:55.965Z,15.05
2023-05-24T07:11:55.887Z,15.10
2023-05-24T07:12:56.024Z,15.12
2023-05-24T07:13:55.935Z,15.19
2023-05-24T07:14:55.821Z,15.19
2023-05-24T07:15:55.970Z,15.22
2023-05-24T07:16:55.855Z,15.29
2023-05-24T07:17:55.865Z,15.36
2023-05-24T07:18:55.802Z,15.41
2023-05-24T07:19:55.881Z,15.47
2023-05-24T07:20:55.766Z,15.48
2023-05-24T07:21:55.978Z,15.48
2023-05-24T07:22:55.676Z,15.51
2023-05-24T07:23:55.908Z,15.52
2023-05-24T07:24:55.711Z,15.44
2023-05-24T07:25:55.673Z,15.41
2023-05-24T07:26:55.833Z,15.39
2023-05-24T07:27:55.851Z,15.39
2023-05-24T07:28:55.752Z,15.39
2023-05-24T07:29:55.600Z,15.37
2023-05-24T07:30:55.666Z,15.39
2023-05-24T07:31:55.686Z,15.41
2023-05-24T07:32:55.844Z,15.43
2023-05-24T07:33:55.867Z,15.44
2023-05-24T07:34:55.839Z,15.45
2023-05-24T07:35:55.657Z,15.48
2023-05-24T07:36:56.159Z,15.54
2023-05-24T07:37:55.631Z,15.52
2023-05-24T07:38:55.529Z,15.47
2023-05-24T07:39:55.635Z,15.45
2023-05-24T07:40:55.480Z,15.41
2023-05-24T07:41:55.609Z,15.41
2023-05-24T07:42:55.734Z,15.39
2023-05-24T07:43:55.542Z,15.37
2023-05-24T07:44:55.414Z,15.33
2023-05-24T07:45:55.579Z,15.29
2023-05-24T07:46:55.883Z,15.32
2023-05-24T07:47:56.826Z,15.32
2023-05-24T07:48:55.379Z,15.26
2023-05-24T07:49:55.333Z,15.33
2023-05-24T07:50:55.526Z,15.32
2023-05-24T07:51:55.432Z,15.25
2023-05-24T07:52:55.349Z,15.18
2023-05-24T07:53:55.315Z,15.23
2023-05-24T07:54:55.294Z,15.19
2023-05-24T07:55:55.546Z,15.12
2023-05-24T07:56:55.285Z,15.17
2023-05-24T07:57:55.319Z,15.22
2023-05-24T07:58:55.239Z,15.25
2023-05-24T07:59:55.234Z,15.27
2023-05-24T08:00:55.251Z,15.29
2023-05-24T08:01:55.237Z,15.32
2023-05-24T08:02:55.587Z,15.37
2023-05-24T08:03:55.383Z,15.41
2023-05-24T08:04:55.163Z,15.41
2023-05-24T08:05:55.125Z,15.43
2023-05-24T08:06:55.233Z,15.39
2023-05-24T08:07:55.196Z,15.39
2023-05-24T08:08:55.130Z,15.41
2023-05-24T08:09:55.091Z,15.48
2023-05-24T08:10:55.070Z,15.55
2023-05-24T08:11:55.340Z,15.60
2023-05-24T08:12:55.188Z,15.70
2023-05-24T08:13:55.031Z,15.81
2023-05-24T08:14:55.076Z,15.91
2023-05-24T08:15:55.334Z,16.05
2023-05-24T08:16:55.097Z,16.25
2023-05-24T08:17:55.051Z,16.41
2023-05-24T08:18:55.441Z,16.64
2023-05-24T08:19:54.991Z,16.76
2023-05-24T08:20:55.167Z,16.79
2023-05-24T08:21:55.235Z,16.84
2023-05-24T08:22:54.892Z,16.76
2023-05-24T08:23:54.892Z,16.72
2023-05-24T08:24:54.930Z,16.66
2023-05-24T08:25:55.015Z,16.68
2023-05-24T08:26:54.868Z,16.66
2023-05-24T08:27:55.078Z,16.68
2023-05-24T08:28:54.875Z,16.69
2023-05-24T08:29:56.997Z,16.62
2023-05-24T08:30:54.823Z,16.66
2023-05-24T08:31:55.019Z,16.76
2023-05-24T08:32:54.926Z,16.77
2023-05-24T08:33:54.938Z,16.82
2023-05-24T08:35:03.585Z,16.77
2023-05-24T08:35:54.771Z,16.84
2023-05-24T08:36:54.757Z,16.97
2023-05-24T08:37:55.025Z,17.13
2023-05-24T08:38:54.822Z,17.37
2023-05-24T08:39:54.671Z,17.54
2023-05-24T08:40:54.767Z,17.68
2023-05-24T08:42:07.950Z,17.69
2023-05-24T08:42:54.981Z,17.82
2023-05-24T08:43:54.705Z,18.03
2023-05-24T08:44:54.764Z,18.26
2023-05-24T08:45:54.731Z,18.41
2023-05-24T08:46:54.668Z,18.89
2023-05-24T08:47:54.982Z,19.37
2023-05-24T08:48:54.881Z,19.74
2023-05-24T08:49:54.615Z,19.97
2023-05-24T08:50:54.535Z,20.26
2023-05-24T08:51:54.499Z,20.49
2023-05-24T08:52:54.552Z,20.58
2023-05-24T08:53:54.652Z,20.60
2023-05-24T08:54:54.488Z,20.73
2023-05-24T08:55:54.605Z,20.89
2023-05-24T08:56:54.458Z,21.44
2023-05-24T08:57:54.566Z,22.18
2023-05-24T08:58:54.468Z,22.53
2023-05-24T08:59:54.489Z,22.62
2023-05-24T09:00:54.432Z,23.07
2023-05-24T09:01:54.403Z,23.45
2023-05-24T09:02:54.489Z,22.78
2023-05-24T09:03:54.390Z,22.56
2023-05-24T09:04:55.809Z,22.71
2023-05-24T09:05:54.584Z,22.91
2023-05-24T09:06:54.314Z,23.36
2023-05-24T09:07:54.276Z,23.55
2023-05-24T09:08:54.411Z,23.86
2023-05-24T09:09:54.394Z,24.14
2023-05-24T09:10:55.828Z,24.79
2023-05-24T09:11:54.252Z,24.99
2023-05-24T09:12:54.251Z,25.70
2023-05-24T09:13:54.258Z,25.51
2023-05-24T09:14:54.306Z,25.14
2023-05-24T09:15:54.240Z,24.89
2023-05-24T09:16:54.202Z,24.38
2023-05-24T09:17:54.207Z,24.34
2023-05-24T09:18:54.150Z,24.34
2023-05-24T09:19:54.346Z,24.51
2023-05-24T09:20:54.724Z,24.63
2023-05-24T09:21:54.117Z,24.53
2023-05-24T09:22:54.200Z,24.61
2023-05-24T09:23:54.282Z,24.69
2023-05-24T09:24:54.176Z,24.26
2023-05-24T09:25:54.362Z,23.86
2023-05-24T09:26:54.121Z,24.07
2023-05-24T09:27:54.022Z,24.21
2023-05-24T09:28:54.209Z,24.66
2023-05-24T09:29:54.104Z,25.14
2023-05-24T09:30:54.247Z,24.97
2023-05-24T09:31:54.133Z,25.18
2023-05-24T09:32:54.015Z,25.59
2023-05-24T09:33:53.962Z,25.49
2023-05-24T09:34:53.990Z,24.88
2023-05-24T09:35:54.056Z,24.26
2023-05-24T09:36:53.934Z,24.04
2023-05-24T09:37:53.990Z,24.65
2023-05-24T09:38:54.109Z,24.99
2023-05-24T09:39:53.930Z,24.85
2023-05-24T09:40:53.977Z,25.03
2023-05-24T09:41:53.935Z,25.24
2023-05-24T09:42:54.122Z,25.63
2023-05-24T09:43:53.932Z,25.86
2023-05-24T09:44:53.900Z,25.95
2023-05-24T09:45:53.877Z,26.06
2023-05-24T09:46:53.815Z,26.23
2023-05-24T09:47:53.989Z,26.30
2023-05-24T09:48:53.784Z,26.06
2023-05-24T09:49:53.764Z,25.25
2023-05-24T09:50:53.915Z,24.82
2023-05-24T09:51:53.737Z,24.61
2023-05-24T09:52:53.753Z,24.61
2023-05-24T09:53:54.080Z,24.68
2023-05-24T09:54:53.923Z,24.00
2023-05-24T09:55:53.715Z,23.69
2023-05-24T09:56:53.875Z,22.70
2023-05-24T09:57:53.630Z,21.78
2023-05-24T09:58:53.771Z,21.44
2023-05-24T09:59:53.732Z,21.58
2023-05-24T10:00:54.239Z,21.72
2023-05-24T10:01:53.789Z,21.72
2023-05-24T10:02:54.266Z,21.80
2023-05-24T10:03:53.633Z,21.70
2023-05-24T10:04:53.592Z,21.91
2023-05-24T10:05:53.747Z,22.19
2023-05-24T10:06:53.642Z,22.36
2023-05-24T10:07:53.665Z,22.44
2023-05-24T10:08:53.500Z,22.19
2023-05-24T10:09:53.603Z,22.03
2023-05-24T10:10:53.614Z,22.04
2023-05-24T10:11:54.512Z,21.68
2023-05-24T10:12:53.428Z,21.66
2023-05-24T10:13:53.755Z,21.78
2023-05-24T10:14:53.424Z,22.15
2023-05-24T10:15:53.409Z,22.31
2023-05-24T10:16:53.508Z,22.53
2023-05-24T10:17:53.392Z,22.52
2023-05-24T10:18:53.475Z,22.55
2023-05-24T10:19:53.364Z,22.56
2023-05-24T10:20:53.665Z,22.51
2023-05-24T10:21:53.509Z,22.61
2023-05-24T10:22:53.287Z,22.52
2023-05-24T10:23:53.426Z,22.49
2023-05-24T10:24:53.259Z,22.28
2023-05-24T10:25:53.226Z,22.21
2023-05-24T10:26:53.314Z,22.07
2023-05-24T10:27:53.271Z,22.19
2023-05-24T10:28:53.257Z,22.36
2023-05-24T10:29:53.318Z,22.44
2023-05-24T10:30:53.283Z,22.53
2023-05-24T10:31:53.460Z,22.68
2023-05-24T10:32:53.255Z,22.76
2023-05-24T10:33:57.188Z,22.74
2023-05-24T10:34:53.176Z,22.73
2023-05-24T10:35:53.165Z,22.81
2023-05-24T10:36:53.235Z,22.86
2023-05-24T10:37:53.365Z,22.83
2023-05-24T10:38:53.135Z,22.84
2023-05-24T10:39:53.055Z,22.55
2023-05-24T10:40:53.257Z,22.65
2023-05-24T10:41:53.142Z,22.52
2023-05-24T10:42:53.218Z,22.38
2023-05-24T10:44:08.034Z,22.31
2023-05-24T10:44:53.019Z,22.28
2023-05-24T10:45:53.046Z,21.85
2023-05-24T10:46:53.299Z,21.84
2023-05-24T10:47:53.005Z,22.00
2023-05-24T10:48:53.134Z,22.08
2023-05-24T10:49:53.069Z,22.06
2023-05-24T10:50:52.908Z,22.03
2023-05-24T10:51:53.131Z,22.04
2023-05-24T10:52:52.835Z,21.80
2023-05-24T10:53:52.993Z,22.06
2023-05-24T10:55:52.990Z,22.31
2023-05-24T10:56:52.917Z,22.86
2023-05-24T10:57:53.007Z,23.36
2023-05-24T10:58:52.794Z,23.64
2023-05-24T10:59:52.784Z,23.91
2023-05-24T11:00:52.939Z,24.18
2023-05-24T11:01:53.242Z,24.50
2023-05-24T11:02:52.996Z,24.36
2023-05-24T11:03:52.730Z,24.19
2023-05-24T11:04:52.823Z,23.94
2023-05-24T11:05:52.955Z,23.59
2023-05-24T11:06:52.817Z,23.18
2023-05-24T11:07:52.751Z,22.83
2023-05-24T11:08:52.960Z,22.44
2023-05-24T11:09:52.778Z,22.07
2023-05-24T11:10:52.617Z,21.97
2023-05-24T11:11:52.657Z,21.91
2023-05-24T11:12:52.718Z,21.88
2023-05-24T11:13:52.706Z,21.91
2023-05-24T11:14:52.849Z,21.89
2023-05-24T11:15:52.731Z,21.91
2023-05-24T11:16:52.712Z,21.96
2023-05-24T11:17:52.783Z,21.96
2023-05-24T11:18:52.821Z,21.85
2023-05-24T11:19:52.557Z,21.80
2023-05-24T11:20:52.592Z,21.77
2023-05-24T11:21:52.539Z,21.53
2023-05-24T11:22:52.610Z,21.20
2023-05-24T11:23:52.687Z,21.25
2023-05-24T11:24:52.522Z,21.30
2023-05-24T11:25:52.680Z,21.26
2023-05-24T11:26:52.536Z,21.25
2023-05-24T11:27:52.555Z,21.17
2023-05-24T11:28:52.408Z,21.14
2023-05-24T11:29:52.681Z,21.15
2023-05-24T11:30:52.479Z,21.14
2023-05-24T11:31:52.690Z,21.15
2023-05-24T11:32:52.662Z,20.90
2023-05-24T11:33:52.383Z,20.71
2023-05-24T11:34:52.308Z,20.55
2023-05-24T11:35:52.364Z,20.46
2023-05-24T11:36:52.362Z,20.27
2023-05-24T11:37:52.439Z,20.34
2023-05-24T11:38:52.696Z,20.50
2023-05-24T11:39:52.696Z,20.60
2023-05-24T11:40:52.210Z,20.59
2023-05-24T11:41:52.469Z,20.70
2023-05-24T11:42:52.288Z,20.83
2023-05-24T11:43:52.371Z,20.90
2023-05-24T11:44:52.266Z,20.95
2023-05-24T11:45:52.237Z,21.08
2023-05-24T11:46:52.199Z,21.17
2023-05-24T11:47:52.557Z,21.11
2023-05-24T11:48:52.317Z,20.92
2023-05-24T11:49:52.352Z,20.70
2023-05-24T11:50:52.370Z,20.53
2023-05-24T11:51:52.156Z,20.55
2023-05-24T11:52:52.186Z,20.63
2023-05-24T11:53:54.531Z,20.59
2023-05-24T11:54:52.226Z,20.63
2023-05-24T11:55:52.138Z,20.70
2023-05-24T11:56:51.989Z,20.85
2023-05-24T11:57:52.026Z,21.00
2023-05-24T11:58:52.292Z,21.17
2023-05-24T11:59:52.030Z,21.23
2023-05-24T12:00:52.184Z,21.28
2023-05-24T12:01:52.036Z,21.35
2023-05-24T12:02:53.400Z,21.51
2023-05-24T12:03:52.257Z,21.68
2023-05-24T12:04:52.099Z,21.78
2023-05-24T12:05:51.893Z,21.69
2023-05-24T12:06:51.879Z,21.68
2023-05-24T12:07:51.856Z,21.74
2023-05-24T12:08:51.891Z,21.75
2023-05-24T12:09:51.941Z,21.74
2023-05-24T12:10:51.955Z,21.74
2023-05-24T12:11:51.841Z,21.65
2023-05-24T12:12:51.834Z,21.58
2023-05-24T12:13:52.031Z,21.51
2023-05-24T12:14:51.960Z,21.43
2023-05-24T12:15:54.045Z,21.45
2023-05-24T12:16:51.861Z,21.45
2023-05-24T12:17:51.904Z,21.44
2023-05-24T12:19:03.704Z,21.44
2023-05-24T12:19:51.890Z,21.63
2023-05-24T12:20:52.531Z,21.96
2023-05-24T12:21:54.053Z,22.10
2023-05-24T12:22:51.656Z,22.23
2023-05-24T12:23:51.731Z,22.10
2023-05-24T12:24:51.923Z,21.75
2023-05-24T12:25:51.706Z,21.51
2023-05-24T12:26:51.716Z,21.47
2023-05-24T12:27:54.296Z,21.65
2023-05-24T12:28:51.868Z,21.74
2023-05-24T12:29:51.847Z,21.85
2023-05-24T12:30:51.657Z,21.80
2023-05-24T12:31:51.664Z,21.69
2023-05-24T12:32:51.594Z,21.56
2023-05-24T12:33:54.242Z,21.58
2023-05-24T12:34:51.662Z,21.72
2023-05-24T12:35:51.494Z,21.83
2023-05-24T12:36:51.506Z,21.80
2023-05-24T12:37:51.496Z,21.75
2023-05-24T12:38:51.554Z,21.81
2023-05-24T12:39:54.448Z,21.94
2023-05-24T12:41:03.868Z,21.80
2023-05-24T12:41:51.435Z,21.85
2023-05-24T12:42:51.633Z,21.92
2023-05-24T12:43:51.410Z,22.01
2023-05-24T12:44:51.664Z,21.85
2023-05-24T12:45:53.573Z,21.60
2023-05-24T12:46:51.598Z,21.54
2023-05-24T12:47:51.575Z,21.51
2023-05-24T12:48:51.315Z,21.63
2023-05-24T12:49:51.499Z,21.69
2023-05-24T12:50:51.276Z,21.83
2023-05-24T12:51:51.330Z,21.89
2023-05-24T12:52:51.273Z,21.66
2023-05-24T12:53:51.269Z,21.47